createdAt,value
2023-05-16T00:00:39.105Z,49.95
2023-05-16T00:01:39.117Z,43.79
2023-05-16T00:02:39.116Z,49.92
2023-05-16T00:03:39.186Z,43.82
2023-05-16T00:04:39.143Z,44.81
2023-05-16T00:05:39.133Z,45.90
2023-05-16T00:06:39.047Z,50.31
2023-05-16T00:07:39.043Z,45.40
2023-05-16T00:08:39.075Z,43.95
2023-05-16T00:09:39.092Z,46.25
2023-05-16T00:10:39.033Z,57.29
2023-05-16T00:11:39.035Z,47.03
2023-05-16T00:12:38.981Z,51.84
2023-05-16T00:13:39.007Z,51.45
2023-05-16T00:14:38.995Z,53.81
2023-05-16T00:15:39.020Z,47.93
2023-05-16T00:16:39.009Z,47.42
2023-05-16T00:17:39.022Z,52.47
2023-05-16T00:18:39.074Z,53.80
2023-05-16T00:19:38.941Z,52.13
2023-05-16T00:20:39.015Z,48.00
2023-05-16T00:21:39.065Z,50.10
2023-05-16T00:23:11.675Z,52.66
2023-05-16T00:23:38.910Z,43.74
2023-05-16T00:24:38.922Z,44.13
2023-05-16T00:25:38.930Z,50.85
2023-05-16T00:26:38.874Z,53.62
2023-05-16T00:27:38.890Z,49.78
2023-05-16T00:28:38.890Z,55.61
2023-05-16T00:29:38.915Z,49.61
2023-05-16T00:30:38.866Z,47.65
2023-05-16T00:31:38.914Z,52.83
2023-05-16T00:32:39.804Z,48.40
2023-05-16T00:33:38.874Z,50.10
2023-05-16T00:34:38.932Z,45.26
2023-05-16T00:35:38.837Z,51.10
2023-05-16T00:36:39.858Z,50.44
2023-05-16T00:37:38.838Z,50.01
2023-05-16T00:38:38.885Z,52.72
2023-05-16T00:39:38.810Z,59.91
2023-05-16T00:40:38.791Z,47.72
2023-05-16T00:41:38.837Z,49.67
2023-05-16T00:42:38.796Z,46.73
2023-05-16T00:43:38.839Z,50.82
2023-05-16T00:44:39.784Z,50.89
2023-05-16T00:45:38.771Z,46.86
2023-05-16T00:46:38.947Z,43.91
2023-05-16T00:47:38.817Z,49.39
2023-05-16T00:48:38.799Z,43.92
2023-05-16T00:49:38.708Z,42.98
2023-05-16T00:50:38.718Z,43.49
2023-05-16T00:51:38.697Z,44.97
2023-05-16T00:52:38.711Z,49.87
2023-05-16T00:53:38.731Z,48.64
2023-05-16T00:54:38.706Z,59.27
2023-05-16T00:55:38.691Z,48.78
2023-05-16T00:56:38.651Z,58.11
2023-05-16T00:57:38.669Z,45.73
2023-05-16T00:58:38.702Z,45.56
2023-05-16T00:59:38.727Z,44.12
2023-05-16T01:00:38.722Z,48.38
2023-05-16T01:01:38.669Z,50.06
2023-05-16T01:02:38.791Z,45.15
2023-05-16T01:03:38.728Z,50.35
2023-05-16T01:04:38.628Z,44.37
2023-05-16T01:05:38.601Z,45.64
2023-05-16T01:06:38.618Z,44.74
2023-05-16T01:07:38.562Z,46.44
2023-05-16T01:08:38.571Z,47.09
2023-05-16T01:09:38.578Z,51.98
2023-05-16T01:10:38.584Z,49.50
2023-05-16T01:11:38.554Z,46.08
2023-05-16T01:12:38.533Z,54.41
2023-05-16T01:13:38.556Z,50.36
2023-05-16T01:14:38.580Z,52.03
2023-05-16T01:15:38.535Z,50.17
2023-05-16T01:16:38.555Z,50.63
2023-05-16T01:17:38.545Z,49.84
2023-05-16T01:18:38.559Z,48.38
2023-05-16T01:19:38.499Z,51.51
2023-05-16T01:20:38.519Z,45.76
2023-05-16T01:21:38.459Z,47.76
2023-05-16T01:22:38.460Z,51.18
2023-05-16T01:23:38.454Z,47.54
2023-05-16T01:24:38.462Z,47.70
2023-05-16T01:25:38.426Z,52.52
2023-05-16T01:26:38.416Z,49.68
2023-05-16T01:27:38.438Z,47.46
2023-05-16T01:28:38.392Z,46.87
2023-05-16T01:29:38.405Z,49.07
2023-05-16T01:30:38.422Z,63.46
2023-05-16T01:31:38.393Z,53.49
2023-05-16T01:32:38.406Z,47.81
2023-05-16T01:33:39.416Z,47.29
2023-05-16T01:34:38.358Z,47.17
2023-05-16T01:35:38.344Z,47.46
2023-05-16T01:36:38.360Z,52.75
2023-05-16T01:37:38.336Z,48.75
2023-05-16T01:38:38.324Z,52.65
2023-05-16T01:39:38.330Z,56.37
2023-05-16T01:40:38.311Z,51.87
2023-05-16T01:41:38.385Z,56.76
2023-05-16T01:42:38.303Z,52.14
2023-05-16T01:43:38.288Z,47.60
2023-05-16T01:44:38.274Z,50.92
2023-05-16T01:45:38.268Z,51.64
2023-05-16T01:46:38.259Z,48.08
2023-05-16T01:47:38.323Z,54.73
2023-05-16T01:48:38.237Z,58.90
2023-05-16T01:49:38.217Z,50.90
2023-05-16T01:50:38.243Z,45.23
2023-05-16T01:51:38.209Z,45.26
2023-05-16T01:52:38.219Z,46.31
2023-05-16T01:53:38.217Z,48.60
2023-05-16T01:54:38.212Z,49.66
2023-05-16T01:55:38.173Z,47.34
2023-05-16T01:56:38.191Z,51.94
2023-05-16T01:57:38.187Z,46.19
2023-05-16T01:58:38.174Z,44.72
2023-05-16T01:59:38.151Z,44.82
2023-05-16T02:00:38.299Z,44.92
2023-05-16T02:01:38.244Z,49.86
2023-05-16T02:02:38.820Z,47.41
2023-05-16T02:03:38.229Z,51.76
2023-05-16T02:04:38.118Z,46.73
2023-05-16T02:05:38.094Z,52.36
2023-05-16T02:06:38.075Z,45.53
2023-05-16T02:07:38.113Z,51.15
2023-05-16T02:08:38.097Z,47.23
2023-05-16T02:09:38.082Z,56.27
2023-05-16T02:10:38.068Z,46.25
2023-05-16T02:11:38.077Z,50.88
2023-05-16T02:12:38.080Z,44.91
2023-05-16T02:13:38.061Z,55.56
2023-05-16T02:14:38.050Z,47.08
2023-05-16T02:15:38.029Z,54.98
2023-05-16T02:16:38.077Z,54.63
2023-05-16T02:17:38.047Z,44.63
2023-05-16T02:18:38.062Z,52.50
2023-05-16T02:19:37.976Z,48.12
2023-05-16T02:20:38.028Z,48.20
2023-05-16T02:21:37.980Z,48.03
2023-05-16T02:22:37.973Z,47.34
2023-05-16T02:23:37.997Z,47.20
2023-05-16T02:24:37.987Z,47.48
2023-05-16T02:25:37.947Z,46.72
2023-05-16T02:26:37.944Z,50.52
2023-05-16T02:27:37.928Z,48.17
2023-05-16T02:28:37.960Z,52.13
2023-05-16T02:29:37.904Z,50.81
2023-05-16T02:30:37.975Z,48.74
2023-05-16T02:31:37.979Z,52.07
2023-05-16T02:32:37.911Z,51.69
2023-05-16T02:33:37.943Z,54.13
2023-05-16T02:34:37.880Z,52.64
2023-05-16T02:35:37.881Z,55.38
2023-05-16T02:36:37.865Z,57.32
2023-05-16T02:37:37.860Z,53.03
2023-05-16T02:38:37.856Z,60.59
2023-05-16T02:39:37.862Z,50.20
2023-05-16T02:40:37.833Z,58.83
2023-05-16T02:41:37.822Z,54.04
2023-05-16T02:42:37.897Z,50.13
2023-05-16T02:43:37.823Z,49.55
2023-05-16T02:44:37.816Z,53.50
2023-05-16T02:45:37.778Z,56.43
2023-05-16T02:46:37.905Z,58.31
2023-05-16T02:47:37.802Z,56.27
2023-05-16T02:48:37.751Z,55.36
2023-05-16T02:49:37.798Z,49.03
2023-05-16T02:50:37.773Z,58.33
2023-05-16T02:51:37.774Z,53.79
2023-05-16T02:52:37.739Z,57.02
2023-05-16T02:53:37.733Z,53.46
2023-05-16T02:54:37.728Z,52.75
2023-05-16T02:55:37.922Z,54.65
2023-05-16T02:56:37.706Z,55.02
2023-05-16T02:57:37.697Z,53.26
2023-05-16T02:58:37.709Z,54.46
2023-05-16T02:59:37.703Z,58.74
2023-05-16T03:00:37.721Z,60.49
2023-05-16T03:01:37.729Z,53.60
2023-05-16T03:02:37.769Z,57.05
2023-05-16T03:03:37.862Z,54.00
2023-05-16T03:04:37.655Z,59.41
2023-05-16T03:05:37.661Z,54.48
2023-05-16T03:06:37.627Z,50.36
2023-05-16T03:07:37.629Z,58.00
2023-05-16T03:08:37.620Z,56.28
2023-05-16T03:09:37.599Z,62.35
2023-05-16T03:10:37.605Z,63.21
2023-05-16T03:11:37.617Z,58.70
2023-05-16T03:12:37.583Z,54.58
2023-05-16T03:13:37.590Z,51.62
2023-05-16T03:14:37.574Z,56.68
2023-05-16T03:15:37.562Z,52.47
2023-05-16T03:16:37.673Z,60.44
2023-05-16T03:17:37.632Z,57.38
2023-05-16T03:18:37.584Z,57.83
2023-05-16T03:19:37.530Z,61.81
2023-05-16T03:20:37.539Z,64.83
2023-05-16T03:21:37.508Z,61.73
2023-05-16T03:22:37.545Z,56.36
2023-05-16T03:23:37.506Z,60.05
2023-05-16T03:24:37.569Z,61.50
2023-05-16T03:25:37.489Z,55.31
2023-05-16T03:26:37.494Z,55.89
2023-05-16T03:27:37.540Z,59.14
2023-05-16T03:28:37.511Z,61.90
2023-05-16T03:29:37.461Z,54.95
2023-05-16T03:30:37.458Z,62.10
2023-05-16T03:31:38.324Z,65.58
2023-05-16T03:32:37.507Z,60.25
2023-05-16T03:33:37.476Z,59.88
2023-05-16T03:34:37.441Z,66.89
2023-05-16T03:35:37.420Z,65.53
2023-05-16T03:36:37.435Z,65.52
2023-05-16T03:37:37.404Z,65.49
2023-05-16T03:38:37.409Z,67.43
2023-05-16T03:39:37.392Z,61.18
2023-05-16T03:40:37.371Z,55.52
2023-05-16T03:41:37.372Z,60.96
2023-05-16T03:42:37.388Z,58.49
2023-05-16T03:43:37.347Z,67.35
2023-05-16T03:44:37.349Z,63.95
2023-05-16T03:45:37.428Z,62.96
2023-05-16T03:46:37.315Z,67.32
2023-05-16T04:04:13.046Z,58.13
2023-05-16T04:05:13.098Z,64.69
2023-05-16T04:06:13.227Z,63.57
2023-05-16T04:07:14.194Z,65.46
2023-05-16T04:08:14.745Z,61.83
2023-05-16T04:09:14.158Z,64.43
2023-05-16T04:10:14.179Z,61.31
2023-05-16T04:11:14.189Z,67.24
2023-05-16T04:12:15.134Z,63.60
2023-05-16T04:13:14.204Z,65.80
2023-05-16T04:14:14.157Z,65.46
2023-05-16T04:15:14.143Z,67.71
2023-05-16T04:16:14.122Z,61.82
2023-05-16T04:17:14.280Z,55.72
2023-05-16T04:18:14.150Z,58.52
2023-05-16T04:19:14.150Z,59.90
2023-05-16T04:20:14.081Z,65.13
2023-05-16T04:21:14.134Z,64.69
2023-05-16T04:22:14.049Z,67.94
2023-05-16T04:23:14.085Z,66.10
2023-05-16T04:24:14.062Z,67.74
2023-05-16T04:25:14.029Z,66.89
2023-05-16T04:26:14.030Z,65.73
2023-05-16T04:27:14.006Z,65.46
2023-05-16T04:28:14.016Z,66.19
2023-05-16T04:29:14.055Z,68.32
2023-05-16T04:30:14.028Z,65.68
2023-05-16T04:31:14.033Z,63.72
2023-05-16T04:32:13.974Z,71.47
2023-05-16T04:33:14.066Z,68.47
2023-05-16T04:34:13.988Z,60.12
2023-05-16T04:35:13.972Z,67.49
2023-05-16T04:36:13.957Z,63.84
2023-05-16T04:37:13.935Z,64.96
2023-05-16T04:38:13.963Z,71.70
2023-05-16T04:39:13.929Z,69.18
2023-05-16T04:40:13.901Z,57.26
2023-05-16T04:41:13.937Z,66.05
2023-05-16T04:42:13.903Z,72.84
2023-05-16T04:43:13.967Z,70.18
2023-05-16T04:44:13.886Z,69.79
2023-05-16T04:45:13.893Z,71.00
2023-05-16T04:46:13.911Z,65.09
2023-05-16T04:47:13.871Z,68.47
2023-05-16T04:48:13.876Z,67.96
2023-05-16T04:49:13.874Z,67.29
2023-05-16T04:50:13.864Z,57.66
2023-05-16T04:51:14.771Z,68.03
2023-05-16T04:52:13.819Z,70.93
2023-05-16T04:53:13.862Z,68.33
2023-05-16T04:54:13.871Z,66.36
2023-05-16T04:55:13.786Z,66.52
2023-05-16T04:56:13.844Z,67.20
2023-05-16T04:57:13.806Z,64.06
2023-05-16T04:58:13.790Z,67.14
2023-05-16T04:59:13.803Z,64.05
2023-05-16T05:00:13.777Z,65.79
2023-05-16T05:01:13.822Z,70.93
2023-05-16T05:02:13.791Z,66.14
2023-05-16T05:03:13.752Z,66.98
2023-05-16T05:04:13.743Z,68.83
2023-05-16T05:05:13.788Z,68.36
2023-05-16T05:06:13.730Z,67.56
2023-05-16T05:07:13.742Z,69.12
2023-05-16T05:08:13.710Z,67.23
2023-05-16T05:09:13.753Z,68.46
2023-05-16T05:10:13.731Z,68.06
2023-05-16T05:11:13.690Z,70.59
2023-05-16T05:12:14.695Z,67.36
2023-05-16T05:13:13.690Z,65.68
2023-05-16T05:14:13.652Z,73.59
2023-05-16T05:15:13.690Z,68.63
2023-05-16T05:16:13.662Z,70.99
2023-05-16T05:17:13.632Z,67.64
2023-05-16T05:18:13.772Z,67.94
2023-05-16T05:19:13.680Z,70.77
2023-05-16T05:20:13.628Z,66.81
2023-05-16T05:21:13.656Z,68.11
2023-05-16T05:22:13.591Z,71.46
2023-05-16T05:23:13.600Z,71.03
2023-05-16T05:24:13.587Z,70.10
2023-05-16T05:25:13.609Z,72.30
2023-05-16T05:26:13.575Z,69.15
2023-05-16T05:27:13.607Z,67.27
2023-05-16T05:28:13.580Z,70.80
2023-05-16T05:29:13.533Z,69.16
2023-05-16T05:30:13.545Z,67.90
2023-05-16T05:31:13.637Z,71.02
2023-05-16T05:32:13.558Z,62.78
2023-05-16T05:33:13.588Z,71.86
2023-05-16T05:34:13.562Z,72.63
2023-05-16T05:35:13.497Z,70.89
2023-05-16T05:36:13.478Z,70.86
2023-05-16T05:37:13.501Z,69.85
2023-05-16T05:38:13.474Z,69.70
2023-05-16T05:39:13.487Z,71.72
2023-05-16T05:40:13.450Z,71.01
2023-05-16T05:41:13.458Z,60.03
2023-05-16T05:42:13.472Z,70.43
2023-05-16T05:43:13.458Z,70.96
2023-05-16T05:44:14.438Z,70.65
2023-05-16T05:45:13.417Z,69.12
2023-05-16T05:46:13.449Z,66.82
2023-05-16T05:47:13.430Z,70.17
2023-05-16T05:48:13.500Z,70.37
2023-05-16T05:49:13.386Z,69.33
2023-05-16T05:50:13.397Z,71.25
2023-05-16T05:51:13.402Z,72.66
2023-05-16T05:52:13.371Z,70.60
2023-05-16T05:53:13.374Z,70.78
2023-05-16T05:54:13.380Z,66.72
2023-05-16T05:55:13.344Z,67.64
2023-05-16T05:56:13.344Z,66.85
2023-05-16T05:57:13.305Z,70.32
2023-05-16T05:58:13.318Z,68.43
2023-05-16T05:59:13.362Z,70.15
2023-05-16T06:00:13.306Z,62.43
2023-05-16T06:01:13.300Z,68.68
2023-05-16T06:02:13.412Z,67.32
2023-05-16T06:03:13.319Z,59.00
2023-05-16T06:04:13.302Z,67.71
2023-05-16T06:05:13.286Z,63.84
2023-05-16T06:06:14.836Z,68.21
2023-05-16T06:07:13.261Z,69.63
2023-05-16T06:08:13.311Z,66.68
2023-05-16T06:09:13.252Z,66.67
2023-05-16T06:10:13.270Z,67.03
2023-05-16T06:11:13.251Z,65.92
2023-05-16T06:12:14.231Z,69.29
2023-05-16T06:13:13.269Z,71.91
2023-05-16T06:14:13.204Z,70.14
2023-05-16T06:15:13.227Z,68.32
2023-05-16T06:16:13.190Z,65.64
2023-05-16T06:17:13.243Z,69.11
2023-05-16T06:18:13.316Z,66.65
2023-05-16T06:19:13.215Z,65.61
2023-05-16T06:20:13.162Z,67.16
2023-05-16T06:21:13.152Z,68.13
2023-05-16T06:22:13.395Z,69.59
2023-05-16T06:23:13.175Z,64.76
2023-05-16T06:24:13.139Z,68.29
2023-05-16T06:25:13.147Z,71.49
2023-05-16T06:26:13.117Z,64.40
2023-05-16T06:27:13.098Z,63.36
2023-05-16T06:28:13.163Z,69.12
2023-05-16T06:29:13.781Z,68.92
2023-05-16T06:30:13.098Z,66.14
2023-05-16T06:31:13.083Z,70.74
2023-05-16T06:32:13.591Z,70.40
2023-05-16T06:33:14.082Z,69.13
2023-05-16T06:34:13.034Z,70.93
2023-05-16T06:35:13.056Z,65.48
2023-05-16T06:36:13.051Z,63.69
2023-05-16T06:37:13.046Z,65.74
2023-05-16T06:38:13.028Z,67.51
2023-05-16T06:39:13.045Z,64.88
2023-05-16T06:40:13.043Z,60.73
2023-05-16T06:41:12.989Z,69.39
2023-05-16T06:42:13.078Z,64.16
2023-05-16T06:43:12.976Z,66.39
2023-05-16T06:44:12.988Z,69.96
2023-05-16T06:45:12.970Z,67.85
2023-05-16T06:46:12.992Z,68.83
2023-05-16T06:47:13.008Z,62.43
2023-05-16T06:48:12.995Z,69.19
2023-05-16T06:49:12.941Z,68.63
2023-05-16T06:50:12.955Z,67.23
2023-05-16T06:51:12.923Z,68.49
2023-05-16T06:52:12.905Z,65.24
2023-05-16T06:53:12.949Z,63.43
2023-05-16T06:54:12.990Z,57.99
2023-05-16T06:55:12.946Z,64.44
2023-05-16T06:56:12.915Z,70.73
2023-05-16T06:57:12.863Z,66.42
2023-05-16T06:58:12.873Z,68.61
2023-05-16T06:59:12.879Z,65.68
2023-05-16T07:00:12.883Z,69.40
2023-05-16T07:01:12.918Z,63.56
2023-05-16T07:02:12.836Z,68.26
2023-05-16T07:03:12.907Z,67.46
2023-05-16T07:04:12.993Z,66.33
2023-05-16T07:05:12.850Z,70.65
2023-05-16T07:06:12.818Z,67.92
2023-05-16T07:07:12.806Z,68.80
2023-05-16T07:08:12.815Z,65.90
2023-05-16T07:09:12.796Z,61.84
2023-05-16T07:10:12.840Z,62.09
2023-05-16T07:11:12.795Z,67.88
2023-05-16T07:12:12.806Z,64.73
2023-05-16T07:13:12.755Z,69.23
2023-05-16T07:14:12.772Z,71.28
2023-05-16T07:15:12.737Z,66.20
2023-05-16T07:16:12.757Z,67.86
2023-05-16T07:17:12.756Z,64.17
2023-05-16T07:18:12.755Z,61.44
2023-05-16T07:19:12.743Z,70.11
2023-05-16T07:20:12.693Z,64.27
2023-05-16T07:21:12.694Z,66.24
2023-05-16T07:22:12.713Z,68.73
2023-05-16T07:23:12.656Z,64.10
2023-05-16T07:24:12.670Z,70.20
2023-05-16T07:25:12.938Z,66.98
2023-05-16T07:26:12.649Z,62.94
2023-05-16T07:27:12.673Z,65.94
2023-05-16T07:28:13.359Z,64.56
2023-05-16T07:29:12.636Z,68.40
2023-05-16T07:30:12.628Z,66.34
2023-05-16T07:31:12.706Z,64.14
2023-05-16T07:32:12.671Z,64.29
2023-05-16T07:33:12.727Z,66.49
2023-05-16T07:34:12.592Z,66.89
2023-05-16T07:35:12.610Z,71.69
2023-05-16T07:36:16.803Z,68.91
2023-05-16T07:37:14.708Z,63.78
2023-05-16T07:38:12.595Z,65.90
2023-05-16T07:39:12.582Z,68.16
2023-05-16T07:40:13.248Z,69.70
2023-05-16T07:41:12.578Z,69.22
2023-05-16T07:42:12.542Z,66.99
2023-05-16T07:43:12.521Z,68.46
2023-05-16T07:44:12.532Z,68.69
2023-05-16T07:45:12.542Z,66.24
2023-05-16T07:46:12.618Z,65.32
2023-05-16T07:47:12.498Z,68.11
2023-05-16T07:48:12.572Z,67.38
2023-05-16T07:49:12.506Z,68.46
2023-05-16T07:50:12.510Z,67.50
2023-05-16T07:51:12.476Z,67.10
2023-05-16T07:52:12.467Z,69.00
2023-05-16T07:53:13.316Z,67.46
2023-05-16T07:54:12.423Z,59.56
2023-05-16T07:55:12.451Z,68.18
2023-05-16T07:56:12.462Z,66.83
2023-05-16T07:57:12.404Z,65.90
2023-05-16T07:58:12.403Z,71.44
2023-05-16T07:59:12.466Z,63.49
2023-05-16T08:00:12.383Z,69.75
2023-05-16T08:01:12.430Z,70.98
2023-05-16T08:02:12.403Z,67.32
2023-05-16T08:03:12.617Z,64.79
2023-05-16T08:04:12.367Z,68.36
2023-05-16T08:05:12.368Z,63.72
2023-05-16T08:06:12.416Z,65.30
2023-05-16T08:07:13.136Z,70.94
2023-05-16T08:08:12.346Z,67.14
2023-05-16T08:09:12.299Z,66.07
2023-05-16T08:10:13.633Z,66.08
2023-05-16T08:11:13.376Z,64.19
2023-05-16T08:12:12.337Z,64.20
2023-05-16T08:13:12.290Z,70.00
2023-05-16T08:14:12.297Z,65.02
2023-05-16T08:15:12.285Z,69.62
2023-05-16T08:16:12.333Z,67.20
2023-05-16T08:17:12.299Z,61.43
2023-05-16T08:18:12.279Z,65.55
2023-05-16T08:19:12.335Z,62.46
2023-05-16T08:20:12.284Z,66.62
2023-05-16T08:21:12.260Z,66.19
2023-05-16T08:22:12.217Z,62.89
2023-05-16T08:23:12.291Z,62.79
2023-05-16T08:24:12.241Z,63.97
2023-05-16T08:25:12.189Z,70.18
2023-05-16T08:26:12.185Z,66.03
2023-05-16T08:27:12.194Z,67.64
2023-05-16T08:28:12.207Z,65.90
2023-05-16T08:29:12.192Z,68.33
2023-05-16T08:30:12.165Z,65.55
2023-05-16T08:31:12.250Z,65.99
2023-05-16T08:32:12.152Z,63.45
2023-05-16T08:33:12.193Z,63.72
2023-05-16T08:34:12.865Z,67.38
2023-05-16T08:35:12.119Z,68.13
2023-05-16T08:36:12.133Z,67.97
2023-05-16T08:37:12.113Z,63.96
2023-05-16T08:38:12.132Z,69.33
2023-05-16T08:39:12.115Z,68.41
2023-05-16T08:40:12.078Z,68.20
2023-05-16T08:41:12.186Z,68.79
2023-05-16T08:42:12.084Z,67.12
2023-05-16T08:43:44.010Z,68.51
2023-05-16T08:44:12.743Z,68.41
2023-05-16T08:45:12.038Z,68.06
2023-05-16T08:46:12.046Z,66.26
2023-05-16T08:47:12.101Z,66.75
2023-05-16T08:48:12.127Z,64.04
2023-05-16T08:49:12.030Z,66.98
2023-05-16T08:50:12.007Z,67.96
2023-05-16T08:51:12.029Z,65.39
2023-05-16T08:52:12.017Z,65.98
2023-05-16T08:53:12.013Z,62.03
2023-05-16T08:54:11.994Z,65.48
2023-05-16T08:55:12.894Z,63.86
2023-05-16T08:56:12.830Z,68.57
2023-05-16T08:57:12.036Z,64.42
2023-05-16T08:58:11.948Z,65.36
2023-05-16T08:59:11.963Z,67.70
2023-05-16T09:00:12.696Z,61.51
2023-05-16T09:01:11.949Z,61.06
2023-05-16T09:02:11.983Z,64.40
2023-05-16T09:03:12.933Z,67.59
2023-05-16T09:04:11.953Z,64.71
2023-05-16T09:05:11.904Z,63.54
2023-05-16T09:06:11.888Z,64.05
2023-05-16T09:07:11.980Z,69.47
2023-05-16T09:08:11.885Z,65.06
2023-05-16T09:09:11.849Z,64.55
2023-05-16T09:10:12.857Z,67.85
2023-05-16T09:11:11.858Z,70.41
2023-05-16T09:12:11.862Z,66.89
2023-05-16T09:13:11.858Z,68.77
2023-05-16T09:14:11.854Z,68.99
2023-05-16T09:15:11.803Z,69.38
2023-05-16T09:16:11.815Z,65.88
2023-05-16T09:17:12.707Z,70.77
2023-05-16T09:18:12.905Z,70.44
2023-05-16T09:19:11.835Z,71.06
2023-05-16T09:20:11.774Z,66.27
2023-05-16T09:21:11.773Z,59.67
2023-05-16T09:22:11.761Z,67.03
2023-05-16T09:23:12.041Z,66.60
2023-05-16T09:24:11.777Z,63.96
2023-05-16T09:25:21.763Z,60.17
2023-05-16T09:26:13.742Z,68.55
2023-05-16T09:27:11.799Z,63.77
2023-05-16T09:28:11.763Z,67.84
2023-05-16T09:29:11.744Z,62.01
2023-05-16T09:30:11.729Z,65.84
2023-05-16T09:31:11.771Z,66.81
2023-05-16T09:32:11.703Z,65.18
2023-05-16T09:33:11.724Z,59.86
2023-05-16T09:34:11.693Z,66.94
2023-05-16T09:35:11.664Z,63.58
2023-05-16T09:36:11.681Z,66.56
2023-05-16T09:37:11.712Z,66.69
2023-05-16T09:38:11.732Z,67.47
2023-05-16T09:39:11.633Z,67.15
2023-05-16T09:40:11.665Z,64.56
2023-05-16T09:41:11.651Z,61.99
2023-05-16T09:42:11.700Z,67.48
2023-05-16T09:43:11.625Z,59.01
2023-05-16T09:44:11.611Z,59.45
2023-05-16T09:45:11.625Z,65.78
2023-05-16T09:46:11.616Z,67.97
2023-05-16T09:47:11.579Z,68.07
2023-05-16T09:48:11.568Z,67.61
2023-05-16T09:49:11.622Z,64.62
2023-05-16T09:50:11.583Z,66.58
2023-05-16T09:51:11.592Z,65.64
2023-05-16T09:52:11.558Z,63.01
2023-05-16T09:53:11.515Z,67.13
2023-05-16T09:54:11.533Z,64.50
2023-05-16T09:55:11.558Z,63.97
2023-05-16T09:56:11.577Z,63.05
2023-05-16T09:57:11.556Z,65.31
2023-05-16T09:58:11.496Z,60.64
2023-05-16T09:59:11.489Z,67.57
2023-05-16T10:00:11.497Z,66.29
2023-05-16T10:01:11.483Z,64.78
2023-05-16T10:02:11.489Z,67.27
2023-05-16T10:03:11.564Z,68.45
2023-05-16T10:04:11.592Z,67.99
2023-05-16T10:05:11.434Z,67.46
2023-05-16T10:06:11.928Z,63.06
2023-05-16T10:07:11.433Z,67.91
2023-05-16T10:08:11.429Z,58.78
2023-05-16T10:09:11.415Z,67.18
2023-05-16T10:10:11.417Z,67.88
2023-05-16T10:11:11.440Z,65.75
2023-05-16T10:12:11.384Z,67.58
2023-05-16T10:13:12.360Z,65.91
2023-05-16T10:14:11.477Z,61.47
2023-05-16T10:15:11.376Z,70.52
2023-05-16T10:16:11.443Z,62.14
2023-05-16T10:17:11.392Z,69.35
2023-05-16T10:18:11.373Z,69.38
2023-05-16T10:19:11.377Z,68.63
2023-05-16T10:20:11.331Z,58.87
2023-05-16T10:21:11.968Z,66.25
2023-05-16T10:22:12.311Z,63.80
2023-05-16T10:23:11.311Z,69.29
2023-05-16T10:24:11.327Z,67.89
2023-05-16T10:25:11.308Z,63.32
2023-05-16T10:26:11.337Z,59.50
2023-05-16T10:27:11.309Z,59.85
2023-05-16T10:28:11.262Z,64.99
2023-05-16T10:29:11.297Z,59.54
2023-05-16T10:30:11.268Z,70.37
2023-05-16T10:31:11.289Z,62.56
2023-05-16T10:32:11.324Z,66.74
2023-05-16T10:33:11.237Z,62.33
2023-05-16T10:34:11.287Z,62.90
2023-05-16T10:35:11.218Z,60.31
2023-05-16T10:36:11.231Z,65.96
2023-05-16T10:37:11.210Z,65.26
2023-05-16T10:38:11.209Z,59.69
2023-05-16T10:39:11.221Z,64.91
2023-05-16T10:40:11.183Z,70.20
2023-05-16T10:41:11.189Z,66.63
2023-05-16T10:42:11.207Z,65.45
2023-05-16T10:43:11.198Z,65.05
2023-05-16T10:44:11.156Z,65.36
2023-05-16T10:45:11.227Z,65.84
2023-05-16T10:46:11.203Z,66.27
2023-05-16T10:47:11.155Z,62.82
2023-05-16T10:48:11.200Z,60.49
2023-05-16T10:49:11.113Z,64.06
2023-05-16T10:50:11.161Z,68.17
2023-05-16T10:51:11.089Z,67.90
2023-05-16T10:52:11.130Z,61.71
2023-05-16T10:53:11.160Z,66.24
2023-05-16T10:54:11.088Z,65.87
2023-05-16T10:55:11.076Z,66.18
2023-05-16T10:56:11.060Z,65.81
2023-05-16T10:57:11.094Z,64.67
2023-05-16T10:58:11.058Z,66.71
2023-05-16T10:59:11.066Z,63.98
2023-05-16T11:00:11.121Z,61.99
2023-05-16T11:01:11.062Z,61.04
2023-05-16T11:02:11.811Z,66.31
2023-05-16T11:03:11.101Z,66.27
2023-05-16T11:04:11.072Z,62.34
2023-05-16T11:05:11.000Z,62.83
2023-05-16T11:06:10.984Z,65.94
2023-05-16T11:07:10.979Z,66.46
2023-05-16T11:08:11.037Z,65.43
2023-05-16T11:09:11.084Z,66.30
2023-05-16T11:10:11.001Z,63.80
2023-05-16T11:11:11.709Z,67.99
2023-05-16T11:12:10.961Z,67.84
2023-05-16T11:13:10.991Z,61.21
2023-05-16T11:14:10.925Z,67.92
2023-05-16T11:15:10.961Z,68.39
2023-05-16T11:16:10.943Z,65.73
2023-05-16T11:17:10.963Z,66.96
2023-05-16T11:18:10.987Z,65.21
2023-05-16T11:19:10.978Z,67.90
2023-05-16T11:20:10.880Z,61.72
2023-05-16T11:21:10.933Z,63.60
2023-05-16T11:22:10.873Z,66.35
2023-05-16T11:23:10.888Z,65.35
2023-05-16T11:24:10.882Z,64.15
2023-05-16T11:25:10.912Z,63.35
2023-05-16T11:26:10.853Z,64.13
2023-05-16T11:27:10.861Z,60.86
2023-05-16T11:28:10.862Z,64.66
2023-05-16T11:29:10.873Z,66.66
2023-05-16T11:30:10.806Z,64.37
2023-05-16T11:31:10.956Z,68.07
2023-05-16T11:32:10.805Z,69.12
2023-05-16T11:33:10.787Z,65.23
2023-05-16T11:34:10.776Z,61.57
2023-05-16T11:35:12.823Z,67.13
2023-05-16T11:36:16.213Z,68.41
2023-05-16T11:37:12.770Z,67.79
2023-05-16T11:38:10.762Z,70.13
2023-05-16T11:39:10.759Z,66.47
2023-05-16T11:40:10.725Z,68.05
2023-05-16T11:41:10.732Z,66.53
2023-05-16T11:42:10.697Z,64.34
2023-05-16T11:43:10.732Z,67.40
2023-05-16T11:44:10.702Z,64.25
2023-05-16T11:45:10.690Z,68.70
2023-05-16T11:46:10.742Z,65.58
2023-05-16T11:47:11.448Z,69.94
2023-05-16T11:48:16.550Z,66.61
2023-05-16T11:49:11.674Z,68.38
2023-05-16T11:50:10.678Z,65.97
2023-05-16T11:51:10.630Z,60.26
2023-05-16T11:52:10.625Z,62.35
2023-05-16T11:53:10.705Z,57.88
2023-05-16T11:54:10.637Z,60.02
2023-05-16T11:55:10.651Z,65.00
2023-05-16T11:56:10.610Z,67.80
2023-05-16T11:57:10.587Z,66.62
2023-05-16T11:58:10.570Z,60.40
2023-05-16T11:59:11.447Z,66.23
2023-05-16T12:00:10.574Z,65.42
2023-05-16T12:01:10.575Z,65.34
2023-05-16T12:02:10.549Z,68.63
2023-05-16T12:03:10.665Z,63.82
2023-05-16T12:04:10.674Z,64.48
2023-05-16T12:05:10.620Z,65.95
2023-05-16T12:06:10.516Z,67.34
2023-05-16T12:07:10.512Z,65.71
2023-05-16T12:08:10.537Z,66.78
2023-05-16T12:09:10.519Z,66.13
2023-05-16T12:10:10.579Z,66.85
2023-05-16T12:11:10.479Z,65.49
2023-05-16T12:12:10.470Z,65.61
2023-05-16T12:13:10.480Z,69.46
2023-05-16T12:14:10.477Z,65.09
2023-05-16T12:15:10.517Z,67.91
2023-05-16T12:16:10.483Z,67.46
2023-05-16T12:17:10.494Z,68.20
2023-05-16T12:18:10.626Z,60.38
2023-05-16T12:19:10.474Z,68.37
2023-05-16T12:20:11.560Z,66.38
2023-05-16T12:21:11.962Z,65.57
2023-05-16T12:22:11.095Z,64.75
2023-05-16T12:23:10.439Z,62.89
2023-05-16T12:24:10.453Z,66.34
2023-05-16T12:25:10.402Z,63.43
2023-05-16T12:26:10.427Z,69.41
2023-05-16T12:27:10.362Z,66.28
2023-05-16T12:28:10.362Z,65.77
2023-05-16T12:29:10.360Z,67.42
2023-05-16T12:30:10.451Z,68.65
2023-05-16T12:31:22.966Z,63.63
2023-05-16T12:32:12.394Z,65.20
2023-05-16T12:33:10.414Z,65.19
2023-05-16T12:34:10.317Z,63.87
2023-05-16T12:35:10.338Z,61.91
2023-05-16T12:36:10.342Z,66.93
2023-05-16T12:37:10.366Z,66.79
2023-05-16T12:38:10.293Z,62.43
2023-05-16T12:39:10.294Z,67.15
2023-05-16T12:40:10.381Z,67.22
2023-05-16T12:41:10.316Z,69.04
2023-05-16T12:42:10.278Z,69.78
2023-05-16T12:43:10.263Z,64.49
2023-05-16T12:44:10.235Z,63.61
2023-05-16T12:45:10.217Z,66.48
2023-05-16T12:46:10.274Z,62.34
2023-05-16T12:47:10.250Z,66.77
2023-05-16T12:48:10.370Z,65.25
2023-05-16T12:49:10.216Z,69.36
2023-05-16T12:50:10.829Z,67.23
2023-05-16T12:51:10.180Z,64.64
2023-05-16T12:52:10.178Z,64.83
2023-05-16T12:53:10.181Z,69.61
2023-05-16T12:54:10.641Z,65.59
2023-05-16T12:55:11.159Z,65.17
2023-05-16T12:56:10.141Z,64.47
2023-05-16T12:57:10.186Z,67.37
2023-05-16T12:58:10.208Z,69.29
2023-05-16T12:59:10.131Z,67.36
2023-05-16T13:00:10.176Z,64.85
2023-05-16T13:01:11.514Z,65.24
2023-05-16T13:02:10.165Z,67.23
2023-05-16T13:03:10.395Z,63.82
2023-05-16T13:04:11.136Z,66.27
2023-05-16T13:05:10.126Z,63.97
2023-05-16T13:06:10.091Z,66.74
2023-05-16T13:07:10.422Z,67.28
2023-05-16T13:08:10.067Z,69.19
2023-05-16T13:09:11.166Z,64.97